createdAt,value
2023-02-22T00:02:03.165Z,7.82
2023-02-22T00:04:29.615Z,7.83
2023-02-22T00:06:57.087Z,7.86
2023-02-22T00:09:23.498Z,7.89
2023-02-22T00:11:49.931Z,7.89
2023-02-22T00:14:16.409Z,7.90
2023-02-22T00:16:42.866Z,7.91
2023-02-22T00:19:09.309Z,7.93
2023-02-22T00:21:35.707Z,7.94
2023-02-22T00:24:02.133Z,7.92
2023-02-22T00:26:28.550Z,7.93
2023-02-22T00:28:54.926Z,7.93
2023-02-22T00:31:21.648Z,7.94
2023-02-22T00:33:48.140Z,7.95
2023-02-22T00:36:14.706Z,7.93
2023-02-22T00:38:41.367Z,7.93
2023-02-22T00:41:07.827Z,7.91
2023-02-22T00:43:34.622Z,7.89
2023-02-22T00:46:01.117Z,7.93
2023-02-22T00:48:27.638Z,7.93
2023-02-22T00:50:54.084Z,7.93
2023-02-22T00:53:21.024Z,7.92
2023-02-22T00:55:47.461Z,7.91
2023-02-22T00:58:13.849Z,7.91
2023-02-22T01:00:41.129Z,7.91
2023-02-22T01:03:09.903Z,7.89
2023-02-22T01:05:36.617Z,7.89
2023-02-22T01:08:03.253Z,7.87
2023-02-22T01:10:30.420Z,7.87
2023-02-22T01:12:57.245Z,7.87
2023-02-22T01:15:25.170Z,7.88
2023-02-22T01:17:52.460Z,7.86
2023-02-22T01:20:19.235Z,7.84
2023-02-22T01:22:46.879Z,7.84
2023-02-22T01:25:16.630Z,7.84
2023-02-22T01:27:42.885Z,7.87
2023-02-22T01:30:11.216Z,7.82
2023-02-22T01:32:39.776Z,7.80
2023-02-22T01:35:07.920Z,7.80
2023-02-22T01:37:35.169Z,7.81
2023-02-22T01:40:01.868Z,7.82
2023-02-22T01:42:28.307Z,7.81
2023-02-22T01:45:31.725Z,7.83
2023-02-22T01:48:04.454Z,7.82
2023-02-22T01:50:32.922Z,7.78
2023-02-22T01:52:59.360Z,7.81
2023-02-22T01:55:25.757Z,7.79
2023-02-22T01:57:52.181Z,7.81
2023-02-22T02:00:19.147Z,7.81
2023-02-22T02:02:50.694Z,7.81
2023-02-22T02:05:17.141Z,7.81
2023-02-22T02:07:43.657Z,7.79
2023-02-22T02:10:11.929Z,7.80
2023-02-22T02:12:38.370Z,7.78
2023-02-22T02:15:27.841Z,7.77
2023-02-22T02:17:55.782Z,7.76
2023-02-22T02:20:27.351Z,7.73
2023-02-22T02:23:27.645Z,7.73
2023-02-22T02:26:18.067Z,7.74
2023-02-22T02:29:17.998Z,7.76
2023-02-22T02:32:10.689Z,7.74
2023-02-22T02:34:52.673Z,7.72
2023-02-22T02:37:53.916Z,7.76
2023-02-22T02:40:26.266Z,7.74
2023-02-22T02:43:17.802Z,7.74
2023-02-22T02:45:54.607Z,7.76
2023-02-22T02:48:22.145Z,7.73
2023-02-22T02:50:48.799Z,7.72
2023-02-22T02:53:18.458Z,7.71
2023-02-22T02:55:44.853Z,7.74
2023-02-22T02:58:16.350Z,7.75
2023-02-22T03:00:42.745Z,7.77
2023-02-22T03:03:38.131Z,7.77
2023-02-22T03:06:56.422Z,7.73
2023-02-22T03:09:25.840Z,7.69
2023-02-22T03:12:08.155Z,7.69
2023-02-22T03:14:40.487Z,7.70
2023-02-22T03:17:37.969Z,7.67
2023-02-22T03:20:09.590Z,7.67
2023-02-22T03:22:59.071Z,7.66
2023-02-22T03:25:33.069Z,7.70
2023-02-22T03:28:01.822Z,7.69
2023-02-22T03:30:34.271Z,7.70
2023-02-22T03:33:06.067Z,7.64
2023-02-22T03:35:33.608Z,7.63
2023-02-22T03:38:01.177Z,7.64
2023-02-22T03:40:39.310Z,7.62
2023-02-22T03:43:07.516Z,7.62
2023-02-22T03:45:33.934Z,7.68
2023-02-22T03:48:06.789Z,7.69
2023-02-22T03:50:34.655Z,7.68
2023-02-22T03:53:01.094Z,7.70
2023-02-22T03:55:27.541Z,7.71
2023-02-22T03:57:56.790Z,7.71
2023-02-22T04:00:25.263Z,7.70
2023-02-22T04:02:51.686Z,7.70
2023-02-22T04:05:18.214Z,7.69
2023-02-22T04:07:44.663Z,7.70
2023-02-22T04:10:11.434Z,7.69
2023-02-22T04:12:38.024Z,7.70
2023-02-22T04:15:05.101Z,7.69
2023-02-22T04:17:31.560Z,7.72
2023-02-22T04:19:57.958Z,7.70
2023-02-22T04:22:24.399Z,7.67
2023-02-22T04:24:50.792Z,7.68
2023-02-22T04:27:17.201Z,7.69
2023-02-22T04:29:43.613Z,7.70
2023-02-22T04:32:10.107Z,7.72
2023-02-22T04:34:36.516Z,7.71
2023-02-22T04:37:02.928Z,7.71
2023-02-22T04:39:29.358Z,7.71
2023-02-22T04:41:55.795Z,7.73
2023-02-22T04:44:22.182Z,7.70
2023-02-22T04:46:48.634Z,7.71
2023-02-22T04:49:15.094Z,7.70
2023-02-22T04:51:41.549Z,7.66
2023-02-22T04:54:08.114Z,7.68
2023-02-22T04:56:34.540Z,7.69
2023-02-22T04:59:00.939Z,7.66
2023-02-22T05:01:31.890Z,7.66
2023-02-22T05:03:58.268Z,7.67
2023-02-22T05:06:24.681Z,7.67
2023-02-22T05:08:51.076Z,7.65
2023-02-22T05:11:17.801Z,7.66
2023-02-22T05:13:44.441Z,7.65
2023-02-22T05:16:10.868Z,7.65
2023-02-22T05:18:37.338Z,7.65
2023-02-22T05:21:03.872Z,7.66
2023-02-22T05:23:30.298Z,7.67
2023-02-22T05:25:56.794Z,7.66
2023-02-22T05:28:23.233Z,7.67
2023-02-22T05:30:50.143Z,7.68
2023-02-22T05:33:16.668Z,7.70
2023-02-22T05:35:43.119Z,7.74
2023-02-22T05:38:11.053Z,7.74
2023-02-22T05:40:37.462Z,7.73
2023-02-22T05:43:03.908Z,7.72
2023-02-22T05:45:30.437Z,7.69
2023-02-22T05:47:56.880Z,7.69
2023-02-22T05:50:23.505Z,7.72
2023-02-22T05:52:50.078Z,7.72
2023-02-22T05:55:18.294Z,7.72
2023-02-22T05:57:44.766Z,7.73
2023-02-22T06:00:14.774Z,7.71
2023-02-22T06:02:41.183Z,7.72
2023-02-22T06:05:08.480Z,7.73
2023-02-22T06:07:34.925Z,7.75
2023-02-22T06:10:01.336Z,7.76
2023-02-22T06:12:27.740Z,7.76
2023-02-22T06:14:54.160Z,7.75
2023-02-22T06:17:20.738Z,7.77
2023-02-22T06:19:47.209Z,7.77
2023-02-22T06:22:17.536Z,7.75
2023-02-22T06:24:43.957Z,7.76
2023-02-22T06:27:10.396Z,7.74
2023-02-22T06:29:36.818Z,7.76
2023-02-22T06:32:03.364Z,7.78
2023-02-22T06:34:29.800Z,7.77
2023-02-22T06:36:56.388Z,7.75
2023-02-22T06:39:23.323Z,7.77
2023-02-22T06:41:49.756Z,7.78
2023-02-22T06:44:16.200Z,7.80
2023-02-22T06:46:49.360Z,7.80
2023-02-22T06:49:15.764Z,7.83
2023-02-22T06:51:42.177Z,7.82
2023-02-22T06:54:08.569Z,7.82
2023-02-22T06:56:35.028Z,7.85
2023-02-22T06:59:02.708Z,7.85
2023-02-22T07:01:29.358Z,7.83
2023-02-22T07:03:55.751Z,7.84
2023-02-22T07:06:22.265Z,7.83
2023-02-22T07:08:48.721Z,7.84
2023-02-22T07:11:16.139Z,7.84
2023-02-22T07:13:42.687Z,7.82
2023-02-22T07:16:09.132Z,7.83
2023-02-22T07:18:35.540Z,7.83
2023-02-22T07:21:01.958Z,7.83
2023-02-22T07:23:28.357Z,7.83
2023-02-22T07:25:54.781Z,7.86
2023-02-22T07:28:21.195Z,7.88
2023-02-22T07:30:47.700Z,7.86
2023-02-22T07:33:14.262Z,7.85
2023-02-22T07:35:45.482Z,7.87
2023-02-22T07:38:11.931Z,7.89
2023-02-22T07:40:38.392Z,7.95
2023-02-22T07:43:25.457Z,7.97
2023-02-22T07:45:53.175Z,7.96
2023-02-22T07:48:21.953Z,7.92
2023-02-22T07:50:48.746Z,7.97
2023-02-22T07:53:17.769Z,7.99
2023-02-22T07:55:44.229Z,8.04
2023-02-22T07:58:13.429Z,8.03
2023-02-22T08:00:40.361Z,8.02
2023-02-22T08:03:11.823Z,8.06
2023-02-22T08:05:39.291Z,8.09
2023-02-22T08:08:06.064Z,8.10
2023-02-22T08:10:32.833Z,8.09
2023-02-22T08:12:59.240Z,8.10
2023-02-22T08:15:30.426Z,8.15
2023-02-22T08:17:57.690Z,8.19
2023-02-22T08:20:24.135Z,8.21
2023-02-22T08:22:51.775Z,8.25
2023-02-22T08:25:19.018Z,8.30
2023-02-22T08:27:45.464Z,8.37
2023-02-22T08:30:21.955Z,8.35
2023-02-22T08:32:49.070Z,8.31
2023-02-22T08:35:16.236Z,8.31
2023-02-22T08:37:44.043Z,8.32
2023-02-22T08:40:13.349Z,8.30
2023-02-22T08:42:40.912Z,8.32
2023-02-22T08:45:07.846Z,8.31
2023-02-22T08:47:37.048Z,8.30
2023-02-22T08:50:03.585Z,8.29
2023-02-22T08:52:29.997Z,8.25
2023-02-22T08:54:56.409Z,8.24
2023-02-22T08:57:22.861Z,8.27
2023-02-22T08:59:49.301Z,8.26
2023-02-22T09:02:17.091Z,8.27
2023-02-22T09:04:43.831Z,8.28
2023-02-22T09:07:10.541Z,8.34
2023-02-22T09:09:37.160Z,8.35
2023-02-22T09:12:03.939Z,8.32
2023-02-22T09:14:30.515Z,8.31
2023-02-22T09:16:56.959Z,8.27
2023-02-22T09:19:23.455Z,8.24
2023-02-22T09:21:58.973Z,8.22
2023-02-22T09:24:25.625Z,8.24
2023-02-22T09:26:52.058Z,8.25
2023-02-22T09:29:18.667Z,8.25
2023-02-22T09:31:45.221Z,8.25
2023-02-22T09:34:11.689Z,8.26
2023-02-22T09:36:38.103Z,8.28
2023-02-22T09:39:04.887Z,8.33
2023-02-22T09:41:44.803Z,8.34
2023-02-22T09:44:11.138Z,8.43
2023-02-22T09:46:38.530Z,8.46
2023-02-22T09:49:21.968Z,8.50
2023-02-22T09:51:52.670Z,8.51
2023-02-22T09:54:21.721Z,8.49
2023-02-22T09:56:48.746Z,8.50
2023-02-22T09:59:17.186Z,8.52
2023-02-22T10:01:46.182Z,8.55
2023-02-22T10:04:40.036Z,8.59
2023-02-22T10:07:18.087Z,8.65
2023-02-22T10:09:44.794Z,8.70
2023-02-22T10:12:30.860Z,8.79
2023-02-22T10:15:08.063Z,8.88
2023-02-22T10:17:42.406Z,8.98
2023-02-22T10:20:14.953Z,9.06
2023-02-22T10:23:09.763Z,9.10
2023-02-22T10:25:36.544Z,9.23
2023-02-22T10:28:20.962Z,9.28
2023-02-22T10:30:50.801Z,9.31
2023-02-22T10:33:21.230Z,9.36
2023-02-22T10:35:47.690Z,9.54
2023-02-22T10:38:24.828Z,9.75
2023-02-22T10:41:03.610Z,9.88
2023-02-22T10:43:30.280Z,10.01
2023-02-22T10:45:58.888Z,10.14
2023-02-22T10:48:25.324Z,10.16
2023-02-22T10:50:51.740Z,10.18
2023-02-22T10:53:18.145Z,10.22
2023-02-22T10:56:09.531Z,10.26
2023-02-22T10:58:55.453Z,10.28
2023-02-22T11:01:27.607Z,10.32
2023-02-22T11:04:20.649Z,10.47
2023-02-22T11:06:48.885Z,10.58
2023-02-22T11:09:19.932Z,10.72
2023-02-22T11:11:47.239Z,10.74
2023-02-22T11:14:29.782Z,10.75
2023-02-22T11:16:57.186Z,10.78
2023-02-22T11:19:27.180Z,10.86
2023-02-22T11:21:59.323Z,10.92
2023-02-22T11:24:25.891Z,10.97
2023-02-22T11:26:57.367Z,11.03
2023-02-22T11:29:31.795Z,11.12
2023-02-22T11:31:58.673Z,11.16
2023-02-22T11:34:30.389Z,11.23
2023-02-22T11:36:57.042Z,11.36
2023-02-22T11:39:23.324Z,11.40
2023-02-22T11:41:49.816Z,11.41
2023-02-22T11:44:29.905Z,11.36
2023-02-22T11:46:58.111Z,11.28
2023-02-22T11:49:25.212Z,11.18
2023-02-22T11:52:06.901Z,11.07
2023-02-22T11:54:55.204Z,11.06
2023-02-22T11:57:40.529Z,11.01
2023-02-22T12:00:32.024Z,11.07
2023-02-22T12:03:28.675Z,11.05
2023-02-22T12:06:02.956Z,11.13
2023-02-22T12:08:41.398Z,11.25
2023-02-22T12:11:11.706Z,11.32
2023-02-22T12:14:17.837Z,11.31
2023-02-22T12:17:21.543Z,11.27
2023-02-22T12:19:54.334Z,11.28
2023-02-22T12:22:24.502Z,11.35
2023-02-22T12:25:12.706Z,11.42
2023-02-22T12:27:57.209Z,11.47
2023-02-22T12:30:27.895Z,11.47
2023-02-22T12:32:56.851Z,11.47
2023-02-22T12:35:24.859Z,11.44
2023-02-22T12:37:53.211Z,11.48
2023-02-22T12:40:27.387Z,11.46
2023-02-22T12:43:00.818Z,11.56
2023-02-22T12:45:38.520Z,11.67
2023-02-22T12:48:26.635Z,11.66
2023-02-22T12:50:59.236Z,11.64
2023-02-22T12:53:31.576Z,11.66
2023-02-22T12:56:28.376Z,11.69
2023-02-22T12:58:59.914Z,11.63
2023-02-22T13:01:28.889Z,11.51
2023-02-22T13:03:55.339Z,11.42
2023-02-22T13:06:27.717Z,11.39
2023-02-22T13:09:17.070Z,11.47
2023-02-22T13:12:01.289Z,11.58
2023-02-22T13:14:41.763Z,11.65
2023-02-22T13:17:14.212Z,11.62
2023-02-22T13:19:55.372Z,11.57
2023-02-22T13:22:36.936Z,11.54
2023-02-22T13:25:09.369Z,11.58
2023-02-22T13:28:03.792Z,11.62
2023-02-22T13:30:37.472Z,11.59
2023-02-22T13:33:12.300Z,11.51
2023-02-22T13:36:06.093Z,11.45
2023-02-22T13:38:55.453Z,11.40
2023-02-22T13:42:06.890Z,11.37
2023-02-22T13:45:02.223Z,11.38
2023-02-22T13:47:54.070Z,11.33
2023-02-22T13:50:39.078Z,11.32
2023-02-22T13:53:07.586Z,11.28
2023-02-22T13:55:34.094Z,11.24
2023-02-22T13:58:06.179Z,11.22
2023-02-22T14:00:38.589Z,11.21
2023-02-22T14:03:14.012Z,11.21
2023-02-22T14:05:43.357Z,11.20
2023-02-22T14:08:19.030Z,11.19
2023-02-22T14:10:54.805Z,11.25
2023-02-22T14:13:23.581Z,11.23
2023-02-22T14:15:59.019Z,11.32
2023-02-22T14:18:29.378Z,11.31
2023-02-22T14:21:18.109Z,11.26
2023-02-22T14:23:45.938Z,11.21
2023-02-22T14:26:32.341Z,11.21
2023-02-22T14:29:08.055Z,11.17
2023-02-22T14:31:38.106Z,11.10
2023-02-22T14:34:09.515Z,11.08
2023-02-22T14:36:55.849Z,11.05
2023-02-22T14:39:46.584Z,11.01
2023-02-22T14:42:12.953Z,10.99
2023-02-22T14:44:43.361Z,10.96
2023-02-22T14:47:15.986Z,10.93
2023-02-22T14:49:43.799Z,10.90
2023-02-22T14:52:21.038Z,10.88
2023-02-22T14:55:15.829Z,10.85
2023-02-22T14:57:46.025Z,10.88
2023-02-22T15:00:20.380Z,10.84
2023-02-22T15:02:50.954Z,10.81
2023-02-22T15:05:18.254Z,10.79
2023-02-22T15:08:01.551Z,10.81
2023-02-22T15:10:29.951Z,10.80
2023-02-22T15:13:04.681Z,10.79
2023-02-22T15:15:31.219Z,10.78
2023-02-22T15:17:57.809Z,10.70
2023-02-22T15:20:24.623Z,10.70
2023-02-22T15:22:51.148Z,10.66
2023-02-22T15:25:22.682Z,10.64
2023-02-22T15:27:49.081Z,10.59
2023-02-22T15:30:17.604Z,10.57
2023-02-22T15:33:01.271Z,10.55
2023-02-22T15:35:30.928Z,10.52
2023-02-22T15:38:04.716Z,10.47
2023-02-22T15:40:31.161Z,10.47
2023-02-22T15:42:57.546Z,10.47
2023-02-22T15:45:24.297Z,10.43
2023-02-22T15:47:51.259Z,10.41
2023-02-22T15:50:23.444Z,10.42
2023-02-22T15:52:54.159Z,10.40
2023-02-22T15:55:24.237Z,10.38
2023-02-22T15:57:51.993Z,10.35
2023-02-22T16:00:27.269Z,10.33
2023-02-22T16:02:53.656Z,10.32
2023-02-22T16:05:20.210Z,10.28
2023-02-22T16:07:50.588Z,10.26
2023-02-22T16:10:28.595Z,10.21
2023-02-22T16:13:05.825Z,10.20
2023-02-22T16:15:32.472Z,10.20
2023-02-22T16:18:16.503Z,10.18
2023-02-22T16:20:44.233Z,10.17
2023-02-22T16:23:26.827Z,10.14
2023-02-22T16:26:04.722Z,10.11
2023-02-22T16:28:31.183Z,10.08
2023-02-22T16:30:58.259Z,10.05
2023-02-22T16:33:24.760Z,10.02
2023-02-22T16:35:51.177Z,10.00
2023-02-22T16:38:17.873Z,9.97
2023-02-22T16:40:51.386Z,9.96
2023-02-22T16:43:19.241Z,9.94
2023-02-22T16:45:45.761Z,9.91
2023-02-22T16:48:22.776Z,9.92
2023-02-22T16:50:51.385Z,9.87
2023-02-22T16:53:19.491Z,9.86
2023-02-22T16:55:48.862Z,9.85
2023-02-22T16:58:15.940Z,9.82
2023-02-22T17:00:42.351Z,9.84
2023-02-22T17:03:14.734Z,9.81
2023-02-22T17:05:41.209Z,9.80
2023-02-22T17:08:07.697Z,9.83
2023-02-22T17:10:34.238Z,9.81
2023-02-22T17:13:07.236Z,9.75
2023-02-22T17:15:39.317Z,9.72
2023-02-22T17:18:13.104Z,9.70
2023-02-22T17:20:39.570Z,9.70
2023-02-22T17:23:07.179Z,9.70
2023-02-22T17:25:53.286Z,9.68
2023-02-22T17:28:19.944Z,9.63
2023-02-22T17:30:46.410Z,9.64
2023-02-22T17:33:14.912Z,9.60
2023-02-22T17:35:41.292Z,9.57
2023-02-22T17:38:07.687Z,9.56
2023-02-22T17:40:35.307Z,9.53
2023-02-22T17:43:01.738Z,9.50
2023-02-22T17:45:28.191Z,9.47
2023-02-22T17:47:54.779Z,9.45
2023-02-22T17:50:21.360Z,9.45
2023-02-22T17:52:47.963Z,9.47
2023-02-22T17:55:14.373Z,9.42
2023-02-22T17:57:40.762Z,9.39
2023-02-22T18:00:07.840Z,9.38
2023-02-22T18:02:34.322Z,9.34
2023-02-22T18:05:01.229Z,9.31
2023-02-22T18:07:27.647Z,9.32
2023-02-22T18:09:54.056Z,9.31
2023-02-22T18:12:20.476Z,9.29
2023-02-22T18:14:46.878Z,9.28
2023-02-22T18:17:13.273Z,9.26
2023-02-22T18:19:39.755Z,9.23
2023-02-22T18:22:06.163Z,9.25
2023-02-22T18:24:33.001Z,9.27
2023-02-22T18:26:59.410Z,9.26
2023-02-22T18:29:25.849Z,9.24
2023-02-22T18:31:53.017Z,9.22
2023-02-22T18:34:19.886Z,9.17
2023-02-22T18:36:46.310Z,9.15
2023-02-22T18:39:12.705Z,9.10
2023-02-22T18:41:39.234Z,9.11
2023-02-22T18:44:06.722Z,9.09
2023-02-22T18:46:33.209Z,9.08
2023-02-22T18:48:59.642Z,9.08
2023-02-22T18:51:26.215Z,9.03
2023-02-22T18:53:52.641Z,9.04
2023-02-22T18:56:19.557Z,9.04
2023-02-22T18:58:46.083Z,9.04
2023-02-22T19:01:17.311Z,9.08
2023-02-22T19:03:44.040Z,9.05
2023-02-22T19:06:10.481Z,9.04
2023-02-22T19:08:37.780Z,8.99
2023-02-22T19:11:08.109Z,8.97
2023-02-22T19:13:36.224Z,8.92
2023-02-22T19:16:03.664Z,8.89
2023-02-22T19:18:30.534Z,8.89
2023-02-22T19:21:01.145Z,8.83
2023-02-22T19:23:27.667Z,8.89
2023-02-22T19:25:54.152Z,8.86
2023-02-22T19:28:20.577Z,8.86
2023-02-22T19:30:48.993Z,8.89
2023-02-22T19:33:15.433Z,8.90
2023-02-22T19:35:43.420Z,8.84
2023-02-22T19:38:09.867Z,8.81
2023-02-22T19:40:37.352Z,8.78
2023-02-22T19:43:05.584Z,8.80
2023-02-22T19:45:32.058Z,8.77
2023-02-22T19:47:59.400Z,8.79
2023-02-22T19:50:25.985Z,8.78
2023-02-22T19:52:53.009Z,8.74
2023-02-22T19:55:19.809Z,8.70
2023-02-22T19:57:49.272Z,8.72
2023-02-22T20:00:16.070Z,8.71
2023-02-22T20:02:42.501Z,8.71
2023-02-22T20:05:10.071Z,8.69
2023-02-22T20:07:36.955Z,8.67
2023-02-22T20:10:05.540Z,8.64
2023-02-22T20:12:32.202Z,8.61
2023-02-22T20:14:58.694Z,8.60
2023-02-22T20:17:25.998Z,8.58
2023-02-22T20:19:52.796Z,8.57
2023-02-22T20:22:29.166Z,8.58
2023-02-22T20:24:55.567Z,8.54
2023-02-22T20:27:21.955Z,8.51
2023-02-22T20:29:49.502Z,8.47
2023-02-22T20:32:16.311Z,8.50
2023-02-22T20:34:46.602Z,8.46
2023-02-22T20:37:12.994Z,8.48
2023-02-22T20:39:39.518Z,8.48
2023-02-22T20:42:05.953Z,8.45
2023-02-22T20:44:33.072Z,8.44
2023-02-22T20:46:59.569Z,8.43
2023-02-22T20:49:26.021Z,8.41
2023-02-22T20:51:52.425Z,8.45
2023-02-22T20:54:19.071Z,8.42
2023-02-22T20:56:46.107Z,8.40
2023-02-22T20:59:14.174Z,8.37
2023-02-22T21:01:40.672Z,8.35
2023-02-22T21:04:07.325Z,8.37
2023-02-22T21:06:33.917Z,8.38
2023-02-22T21:09:00.352Z,8.37
2023-02-22T21:11:28.354Z,8.32
2023-02-22T21:13:54.782Z,8.30
2023-02-22T21:16:29.441Z,8.32
2023-02-22T21:18:57.499Z,8.30
2023-02-22T21:21:24.105Z,8.30
2023-02-22T21:23:52.778Z,8.33
2023-02-22T21:26:20.987Z,8.29
2023-02-22T21:28:51.246Z,8.25
2023-02-22T21:31:19.145Z,8.22
2023-02-22T21:33:50.757Z,8.21
2023-02-22T21:36:17.400Z,8.20
2023-02-22T21:38:46.220Z,8.17
2023-02-22T21:41:18.377Z,8.14
2023-02-22T21:43:50.288Z,8.09
2023-02-22T21:46:17.584Z,8.12
2023-02-22T21:48:44.451Z,8.09
2023-02-22T21:51:11.646Z,8.11
2023-02-22T21:53:38.035Z,8.11
2023-02-22T21:56:05.138Z,8.09
2023-02-22T21:58:31.673Z,8.08
2023-02-22T22:01:04.231Z,8.09
2023-02-22T22:03:30.693Z,8.06
2023-02-22T22:05:57.092Z,8.05
2023-02-22T22:08:23.483Z,8.04
2023-02-22T22:10:53.003Z,8.05
2023-02-22T22:13:19.377Z,8.03
2023-02-22T22:15:45.808Z,8.00
2023-02-22T22:18:12.200Z,7.97
2023-02-22T22:20:38.606Z,7.98
2023-02-22T22:23:05.903Z,8.00
2023-02-22T22:25:32.845Z,8.01
2023-02-22T22:27:59.263Z,7.96
2023-02-22T22:30:25.728Z,7.92
2023-02-22T22:32:52.153Z,7.87
2023-02-22T22:35:18.573Z,7.85
2023-02-22T22:37:44.988Z,7.86
2023-02-22T22:40:12.088Z,7.81
2023-02-22T22:42:38.494Z,7.78
2023-02-22T22:45:05.240Z,7.78
2023-02-22T22:47:31.674Z,7.76
2023-02-22T22:49:58.084Z,7.73
2023-02-22T22:52:24.518Z,7.72
2023-02-22T22:54:50.906Z,7.70
2023-02-22T22:57:17.302Z,7.67
2023-02-22T22:59:43.687Z,7.64
2023-02-22T23:02:10.104Z,7.62
2023-02-22T23:04:36.505Z,7.61
2023-02-22T23:07:02.947Z,7.60
2023-02-22T23:09:29.814Z,7.58
2023-02-22T23:11:57.924Z,7.56
2023-02-22T23:14:26.138Z,7.54
2023-02-22T23:16:53.475Z,7.52
2023-02-22T23:19:20.013Z,7.50
2023-02-22T23:21:47.249Z,7.47
2023-02-22T23:24:14.084Z,7.46
2023-02-22T23:26:40.564Z,7.44
2023-02-22T23:29:06.974Z,7.44
2023-02-22T23:31:33.461Z,7.41
2023-02-22T23:33:59.995Z,7.40
2023-02-22T23:36:26.438Z,7.37
2023-02-22T23:38:52.837Z,7.35
2023-02-22T23:41:19.547Z,7.31
2023-02-22T23:43:46.195Z,7.32
2023-02-22T23:46:14.814Z,7.29
2023-02-22T23:48:42.512Z,7.28
2023-02-22T23:51:09.789Z,7.29
2023-02-22T23:53:37.533Z,7.29
2023-02-22T23:56:06.138Z,7.22
2023-02-22T23:58:32.625Z,7.20
